createdAt,value
2018-04-08T00:00:13.126Z,8.20
2018-04-08T00:02:40.079Z,8.20
2018-04-08T00:05:07.060Z,8.20
2018-04-08T00:07:33.282Z,8.10
2018-04-08T00:10:00.272Z,8.00
2018-04-08T00:12:26.502Z,8.00
2018-04-08T00:14:52.710Z,8.00
2018-04-08T00:17:19.670Z,7.90
2018-04-08T00:19:46.628Z,7.80
2018-04-08T00:22:13.608Z,7.80
2018-04-08T00:24:39.911Z,7.80
2018-04-08T00:27:06.172Z,7.80
2018-04-08T00:29:33.119Z,7.70
2018-04-08T00:32:00.102Z,7.70
2018-04-08T00:34:26.322Z,7.70
2018-04-08T00:36:53.303Z,7.60
2018-04-08T00:39:19.511Z,7.60
2018-04-08T00:41:45.730Z,7.60
2018-04-08T00:44:11.954Z,7.50
2018-04-08T00:46:38.204Z,7.50
2018-04-08T00:49:04.444Z,7.50
2018-04-08T00:51:30.793Z,7.50
2018-04-08T00:54:09.188Z,7.40
2018-04-08T00:56:35.454Z,7.30
2018-04-08T00:59:02.459Z,7.20
2018-04-08T01:01:29.419Z,7.20
2018-04-08T01:03:56.422Z,7.10
2018-04-08T01:06:22.661Z,7.10
2018-04-08T01:08:48.911Z,7.10
2018-04-08T01:11:15.871Z,7.00
2018-04-08T01:13:42.137Z,7.00
2018-04-08T01:16:08.357Z,7.00
2018-04-08T01:18:34.596Z,6.90
2018-04-08T01:21:00.843Z,6.80
2018-04-08T01:23:27.137Z,6.80
2018-04-08T01:25:53.359Z,6.80
2018-04-08T01:28:20.365Z,6.80
2018-04-08T01:30:46.609Z,6.70
2018-04-08T01:33:12.834Z,6.70
2018-04-08T01:35:39.059Z,6.70
2018-04-08T01:38:05.279Z,6.70
2018-04-08T01:40:32.234Z,6.60
2018-04-08T01:42:59.197Z,6.70
2018-04-08T01:45:25.426Z,6.60
2018-04-08T01:47:52.400Z,6.60
2018-04-08T01:50:18.602Z,6.60
2018-04-08T01:52:44.842Z,6.60
2018-04-08T01:55:11.047Z,6.60
2018-04-08T01:57:37.280Z,6.60
2018-04-08T02:00:03.515Z,6.50
2018-04-08T02:02:29.728Z,6.50
2018-04-08T02:04:56.739Z,6.40
2018-04-08T02:07:22.985Z,6.40
2018-04-08T02:09:49.200Z,6.40
2018-04-08T02:12:15.416Z,6.30
2018-04-08T02:14:41.650Z,6.30
2018-04-08T02:17:08.628Z,6.20
2018-04-08T02:19:34.876Z,6.20
2018-04-08T02:22:01.084Z,6.20
2018-04-08T02:24:27.392Z,6.20
2018-04-08T02:26:53.606Z,6.10
2018-04-08T02:29:19.814Z,6.10
2018-04-08T02:31:46.762Z,6.00
2018-04-08T02:34:13.730Z,6.00
2018-04-08T02:36:40.686Z,6.00
2018-04-08T02:39:07.776Z,6.00
2018-04-08T02:41:33.987Z,5.90
2018-04-08T02:44:00.932Z,5.90
2018-04-08T02:46:27.894Z,5.90
2018-04-08T02:48:54.846Z,5.80
2018-04-08T02:51:21.842Z,5.80
2018-04-08T02:53:48.073Z,5.80
2018-04-08T02:56:14.292Z,5.80
2018-04-08T02:58:41.263Z,5.70
2018-04-08T03:01:07.488Z,5.70
2018-04-08T03:03:34.461Z,5.70
2018-04-08T03:06:00.678Z,5.60
2018-04-08T03:08:27.639Z,5.60
2018-04-08T03:10:54.621Z,5.60
2018-04-08T03:13:20.848Z,5.60
2018-04-08T03:15:47.824Z,5.50
2018-04-08T03:18:14.056Z,5.50
2018-04-08T03:20:40.280Z,5.50
2018-04-08T03:23:07.440Z,5.40
2018-04-08T03:25:34.415Z,5.40
2018-04-08T03:28:00.643Z,5.30
2018-04-08T03:30:26.872Z,5.30
2018-04-08T03:32:53.835Z,5.20
2018-04-08T03:35:20.793Z,5.20
2018-04-08T03:37:47.753Z,5.20
2018-04-08T03:40:14.711Z,5.10
2018-04-08T03:42:40.937Z,5.10
2018-04-08T03:45:07.924Z,5.10
2018-04-08T03:47:34.133Z,5.10
2018-04-08T03:50:01.102Z,5.10
2018-04-08T03:52:28.086Z,5.10
2018-04-08T03:54:54.347Z,5.10
2018-04-08T03:57:20.595Z,5.10
2018-04-08T03:59:46.857Z,5.10
2018-04-08T04:02:13.110Z,5.10
2018-04-08T04:04:40.091Z,5.00
2018-04-08T04:07:06.307Z,5.00
2018-04-08T04:09:33.307Z,4.90
2018-04-08T04:11:59.539Z,4.90
2018-04-08T04:14:25.803Z,4.90
2018-04-08T04:16:52.055Z,4.90
2018-04-08T04:19:30.773Z,4.90
2018-04-08T04:22:09.381Z,4.80
2018-04-08T04:24:47.903Z,4.80
2018-04-08T04:27:14.148Z,4.80
2018-04-08T04:29:40.396Z,4.70
2018-04-08T04:32:06.642Z,4.70
2018-04-08T04:34:32.918Z,4.70
2018-04-08T04:36:59.177Z,4.70
2018-04-08T04:39:25.375Z,4.70
2018-04-08T04:41:51.613Z,4.60
2018-04-08T04:44:17.829Z,4.60
2018-04-08T04:46:44.054Z,4.50
2018-04-08T04:49:11.024Z,5.60
2018-04-08T04:51:37.999Z,6.30
2018-04-08T04:54:04.324Z,6.30
2018-04-08T04:56:30.599Z,7.00
2018-04-08T04:58:56.872Z,7.50
2018-04-08T05:01:23.116Z,8.00
2018-04-08T05:03:49.352Z,8.30
2018-04-08T05:06:15.570Z,8.50
2018-04-08T05:08:41.806Z,8.70
2018-04-08T05:11:08.046Z,8.60
2018-04-08T05:13:34.260Z,8.30
2018-04-08T05:16:00.485Z,8.00
2018-04-08T05:18:27.436Z,7.50
2018-04-08T05:20:54.416Z,7.40
2018-04-08T05:23:20.698Z,7.30
2018-04-08T05:25:46.919Z,7.20
2018-04-08T05:28:13.149Z,7.00
2018-04-08T05:30:39.367Z,7.00
2018-04-08T05:33:06.311Z,6.80
2018-04-08T05:35:33.268Z,6.70
2018-04-08T05:38:00.214Z,6.70
2018-04-08T05:40:26.441Z,6.70
2018-04-08T05:42:52.652Z,6.80
2018-04-08T05:45:18.919Z,6.80
2018-04-08T05:47:45.177Z,7.20
2018-04-08T05:50:11.423Z,7.60
2018-04-08T05:52:37.679Z,7.70
2018-04-08T05:55:04.892Z,8.10
2018-04-08T05:57:31.153Z,8.10
2018-04-08T05:59:57.382Z,8.20
2018-04-08T06:02:23.639Z,8.30
2018-04-08T06:04:49.840Z,8.40
2018-04-08T06:07:16.064Z,8.40
2018-04-08T06:09:42.296Z,8.50
2018-04-08T06:12:08.584Z,8.60
2018-04-08T06:14:34.823Z,8.60
2018-04-08T06:17:01.056Z,8.70
2018-04-08T06:19:27.291Z,8.70
2018-04-08T06:21:53.512Z,8.80
2018-04-08T06:24:19.767Z,8.80
2018-04-08T06:26:45.984Z,8.70
2018-04-08T06:29:12.208Z,8.50
2018-04-08T06:31:39.236Z,8.20
2018-04-08T06:34:05.487Z,8.20
2018-04-08T06:36:31.766Z,8.20
2018-04-08T06:38:58.016Z,8.10
2018-04-08T06:41:24.268Z,8.00
2018-04-08T06:43:50.507Z,8.00
2018-04-08T06:46:16.761Z,7.90
2018-04-08T06:48:42.988Z,7.90
2018-04-08T06:51:09.278Z,7.90
2018-04-08T06:53:36.226Z,8.00
2018-04-08T06:56:02.863Z,8.00
2018-04-08T06:58:29.126Z,8.00
2018-04-08T07:00:56.079Z,8.10
2018-04-08T07:03:23.221Z,8.10
2018-04-08T07:05:49.478Z,8.20
2018-04-08T07:08:15.714Z,8.40
2018-04-08T07:10:41.951Z,8.60
2018-04-08T07:13:08.190Z,8.80
2018-04-08T07:15:34.407Z,8.90
2018-04-08T07:18:00.667Z,9.00
2018-04-08T07:20:26.918Z,9.00
2018-04-08T07:22:53.160Z,8.90
2018-04-08T07:25:20.191Z,8.90
2018-04-08T07:27:46.437Z,8.90
2018-04-08T07:30:12.676Z,8.90
2018-04-08T07:32:38.919Z,9.00
2018-04-08T07:35:05.156Z,9.10
2018-04-08T07:37:31.412Z,9.20
2018-04-08T07:39:57.663Z,9.20
2018-04-08T07:42:23.891Z,9.30
2018-04-08T07:44:50.134Z,9.40
2018-04-08T07:47:16.411Z,9.50
2018-04-08T07:49:43.425Z,9.70
2018-04-08T07:52:09.667Z,9.70
2018-04-08T07:54:35.879Z,9.80
2018-04-08T07:57:02.159Z,9.90
2018-04-08T07:59:28.395Z,10.00
2018-04-08T08:01:54.643Z,10.20
2018-04-08T08:04:20.872Z,10.40
2018-04-08T08:06:47.096Z,10.70
2018-04-08T08:09:14.087Z,11.10
2018-04-08T08:11:40.322Z,11.10
2018-04-08T08:14:06.603Z,11.30
2018-04-08T08:16:32.879Z,11.50
2018-04-08T08:18:59.110Z,11.70
2018-04-08T08:21:25.401Z,11.70
2018-04-08T08:23:52.458Z,12.00
2018-04-08T08:26:19.437Z,12.10
2018-04-08T08:28:45.671Z,12.10
2018-04-08T08:31:11.924Z,12.10
2018-04-08T08:33:38.187Z,12.20
2018-04-08T08:36:04.435Z,12.20
2018-04-08T08:38:30.701Z,12.20
2018-04-08T08:40:56.948Z,12.20
2018-04-08T08:43:23.185Z,12.20
2018-04-08T08:45:49.408Z,12.30
2018-04-08T08:48:15.654Z,12.30
2018-04-08T08:50:41.901Z,12.40
2018-04-08T08:53:08.132Z,12.50
2018-04-08T08:55:34.350Z,12.60
2018-04-08T08:58:00.596Z,12.70
2018-04-08T09:00:26.817Z,12.80
2018-04-08T09:02:53.058Z,12.90
2018-04-08T09:05:19.297Z,13.00
2018-04-08T09:07:45.535Z,13.10
2018-04-08T09:10:11.750Z,13.30
2018-04-08T09:12:38.746Z,13.60
2018-04-08T09:15:05.032Z,13.50
2018-04-08T09:17:31.333Z,13.70
2018-04-08T09:20:14.378Z,13.70
2018-04-08T09:22:46.846Z,13.90
2018-04-08T09:25:14.096Z,14.00
2018-04-08T09:27:40.341Z,14.10
2018-04-08T09:30:06.638Z,14.20
2018-04-08T09:32:32.853Z,14.30
2018-04-08T09:34:59.144Z,14.30
2018-04-08T09:37:26.133Z,14.60
2018-04-08T09:39:52.367Z,14.50
2018-04-08T09:42:18.602Z,14.70
2018-04-08T09:44:44.839Z,14.90
2018-04-08T09:47:11.082Z,15.10
2018-04-08T09:49:37.331Z,15.30
2018-04-08T09:52:03.577Z,15.40
2018-04-08T09:54:29.831Z,15.50
2018-04-08T09:56:56.079Z,15.70
2018-04-08T09:59:22.366Z,15.90
2018-04-08T10:01:50.254Z,16.40
2018-04-08T10:04:17.329Z,16.50
2018-04-08T10:06:44.352Z,16.60
2018-04-08T10:09:10.583Z,16.60
2018-04-08T10:11:36.821Z,16.70
2018-04-08T10:14:03.124Z,16.90
2018-04-08T10:16:29.364Z,17.10
2018-04-08T10:18:55.635Z,17.30
2018-04-08T10:21:21.882Z,17.50
2018-04-08T10:23:48.131Z,17.70
2018-04-08T10:26:14.384Z,18.10
2018-04-08T10:28:40.601Z,18.50
2018-04-08T10:31:06.839Z,18.80
2018-04-08T10:33:33.143Z,19.10
2018-04-08T10:35:59.427Z,19.30
2018-04-08T10:38:25.651Z,19.60
2018-04-08T10:40:51.894Z,20.00
2018-04-08T10:43:18.114Z,20.40
2018-04-08T10:45:44.363Z,20.70
2018-04-08T10:48:10.619Z,21.00
2018-04-08T10:50:36.869Z,21.20
2018-04-08T10:53:03.102Z,21.50
2018-04-08T10:55:29.336Z,21.80
2018-04-08T10:57:55.628Z,22.30
2018-04-08T11:00:22.632Z,22.80
2018-04-08T11:02:48.889Z,22.80
2018-04-08T11:05:15.160Z,22.90
2018-04-08T11:07:41.400Z,23.10
2018-04-08T11:10:08.412Z,23.20
2018-04-08T11:12:34.697Z,23.20
2018-04-08T11:15:01.667Z,23.60
2018-04-08T11:17:28.679Z,23.80
2018-04-08T11:19:54.919Z,23.80
2018-04-08T11:22:21.124Z,24.10
2018-04-08T11:24:47.446Z,24.40
2018-04-08T11:27:13.730Z,24.50
2018-04-08T11:29:40.010Z,24.50
2018-04-08T11:32:06.218Z,24.50
2018-04-08T11:34:32.432Z,24.70
2018-04-08T11:36:58.685Z,24.80
2018-04-08T11:39:24.896Z,24.90
2018-04-08T11:41:51.140Z,25.00
2018-04-08T11:44:18.099Z,25.10
2018-04-08T11:46:44.342Z,25.10
2018-04-08T11:49:10.555Z,25.20
2018-04-08T11:51:36.837Z,25.30
2018-04-08T11:54:03.082Z,25.40
2018-04-08T11:56:29.348Z,25.40
2018-04-08T11:58:55.583Z,25.60
2018-04-08T12:01:21.859Z,25.80
2018-04-08T12:03:48.919Z,26.10
2018-04-08T12:06:15.151Z,26.10
2018-04-08T12:08:41.382Z,26.40
2018-04-08T12:11:07.639Z,26.60
2018-04-08T12:13:33.913Z,26.80
2018-04-08T12:16:00.169Z,27.00
2018-04-08T12:18:26.433Z,27.10
2018-04-08T12:20:52.754Z,27.10
2018-04-08T12:23:19.015Z,27.10
2018-04-08T12:25:45.277Z,27.20
2018-04-08T12:28:11.536Z,27.20
2018-04-08T12:30:38.545Z,27.30
2018-04-08T12:33:04.805Z,27.20
2018-04-08T12:35:31.047Z,27.30
2018-04-08T12:37:57.299Z,27.20
2018-04-08T12:40:23.538Z,27.30
2018-04-08T12:42:49.750Z,27.60
2018-04-08T12:45:16.090Z,27.80
2018-04-08T12:47:42.363Z,27.90
2018-04-08T12:50:08.623Z,28.10
2018-04-08T12:52:35.611Z,28.30
2018-04-08T12:55:01.855Z,28.30
2018-04-08T12:57:28.086Z,28.40
2018-04-08T12:59:54.798Z,28.50
2018-04-08T13:02:21.040Z,28.60
2018-04-08T13:04:47.272Z,28.70
2018-04-08T13:07:13.534Z,28.70
2018-04-08T13:09:40.510Z,28.90
2018-04-08T13:12:06.766Z,28.80
2018-04-08T13:14:32.962Z,28.90
2018-04-08T13:16:59.181Z,29.00
2018-04-08T13:19:25.435Z,29.00
2018-04-08T13:21:51.707Z,29.00
2018-04-08T13:24:18.708Z,29.20
2018-04-08T13:26:51.871Z,29.10
2018-04-08T13:29:18.860Z,29.30
2018-04-08T13:31:45.082Z,29.30
2018-04-08T13:34:11.304Z,29.40
2018-04-08T13:36:38.308Z,29.40
2018-04-08T13:39:04.582Z,29.40
2018-04-08T13:41:30.846Z,29.40
2018-04-08T13:43:57.806Z,29.50
2018-04-08T13:46:24.775Z,29.50
2018-04-08T13:48:50.998Z,29.50
2018-04-08T13:51:18.002Z,29.40
2018-04-08T13:53:44.235Z,29.40
2018-04-08T13:56:10.536Z,29.40
2018-04-08T13:58:37.503Z,29.70
2018-04-08T14:01:04.652Z,29.70
2018-04-08T14:03:31.628Z,29.80
2018-04-08T14:05:57.854Z,29.80
2018-04-08T14:08:24.852Z,29.70
2018-04-08T14:10:51.077Z,29.70
2018-04-08T14:13:17.315Z,29.50
2018-04-08T14:15:43.552Z,29.50
2018-04-08T14:18:10.548Z,29.60
2018-04-08T14:20:36.808Z,29.50
2018-04-08T14:23:03.061Z,29.60
2018-04-08T14:25:29.278Z,29.50
2018-04-08T14:27:55.547Z,29.40
2018-04-08T14:30:21.781Z,29.30
2018-04-08T14:32:48.055Z,29.30
2018-04-08T14:35:14.295Z,29.30
2018-04-08T14:37:41.320Z,29.30
2018-04-08T14:40:07.580Z,29.20
2018-04-08T14:42:34.587Z,29.30
2018-04-08T14:45:00.836Z,29.30
2018-04-08T14:47:27.099Z,29.30
2018-04-08T14:49:53.319Z,29.30
2018-04-08T14:52:19.568Z,29.30
2018-04-08T14:54:45.790Z,29.20
2018-04-08T14:57:12.024Z,29.10
2018-04-08T14:59:38.312Z,29.10
2018-04-08T15:02:04.553Z,29.00
2018-04-08T15:04:31.536Z,28.70
2018-04-08T15:06:57.796Z,28.70
2018-04-08T15:09:24.766Z,28.60
2018-04-08T15:11:50.986Z,28.60
2018-04-08T15:14:17.244Z,28.50
2018-04-08T15:16:43.532Z,28.50
2018-04-08T15:19:09.795Z,28.60
2018-04-08T15:21:35.995Z,28.60
2018-04-08T15:24:02.288Z,28.60
2018-04-08T15:26:28.526Z,28.50
2018-04-08T15:28:54.752Z,28.40
2018-04-08T15:31:21.722Z,28.10
2018-04-08T15:33:47.955Z,28.00
2018-04-08T15:36:14.206Z,27.90
2018-04-08T15:38:40.452Z,27.70
2018-04-08T15:41:06.696Z,27.70
2018-04-08T15:43:32.957Z,27.80
2018-04-08T15:45:59.228Z,27.90
2018-04-08T15:48:25.516Z,27.90
2018-04-08T15:50:51.742Z,28.00
2018-04-08T15:53:17.996Z,27.80
2018-04-08T15:55:44.216Z,27.50
2018-04-08T15:58:11.225Z,27.30
2018-04-08T16:00:37.428Z,27.30
2018-04-08T16:03:03.684Z,27.20
2018-04-08T16:05:29.897Z,27.20
2018-04-08T16:07:56.935Z,27.20
2018-04-08T16:10:23.161Z,27.10
2018-04-08T16:12:49.440Z,27.10
2018-04-08T16:15:15.694Z,26.90
2018-04-08T16:17:41.948Z,26.70
2018-04-08T16:20:08.870Z,26.50
2018-04-08T16:22:35.848Z,26.20
2018-04-08T16:25:02.119Z,26.20
2018-04-08T16:27:28.984Z,26.00
2018-04-08T16:29:55.244Z,25.80
2018-04-08T16:32:21.475Z,25.70
2018-04-08T16:34:47.727Z,25.50
2018-04-08T16:37:13.969Z,25.40
2018-04-08T16:39:40.231Z,25.30
2018-04-08T16:42:06.501Z,25.10
2018-04-08T16:44:32.771Z,24.90
2018-04-08T16:46:58.992Z,24.70
2018-04-08T16:49:25.217Z,24.40
2018-04-08T16:51:51.459Z,24.10
2018-04-08T16:54:17.760Z,23.80
2018-04-08T16:56:44.737Z,23.30
2018-04-08T16:59:11.059Z,23.30
2018-04-08T17:01:37.302Z,23.00
2018-04-08T17:04:03.671Z,22.70
2018-04-08T17:06:29.906Z,22.50
2018-04-08T17:08:56.899Z,22.00
2018-04-08T17:11:23.133Z,22.00
2018-04-08T17:13:49.405Z,21.80
2018-04-08T17:16:15.640Z,21.70
2018-04-08T17:18:41.919Z,21.50
2018-04-08T17:21:08.927Z,21.10
2018-04-08T17:23:35.246Z,21.00
2018-04-08T17:26:01.593Z,20.90
2018-04-08T17:28:27.797Z,20.80
2018-04-08T17:30:54.785Z,20.30
2018-04-08T17:33:21.079Z,20.30
2018-04-08T17:35:47.335Z,20.20
2018-04-08T17:38:14.342Z,19.80
2018-04-08T17:40:40.594Z,19.80
2018-04-08T17:43:07.083Z,19.60
2018-04-08T17:45:34.094Z,19.30
2018-04-08T17:48:00.359Z,19.30
2018-04-08T17:50:26.656Z,19.20
2018-04-08T17:52:52.948Z,19.00
2018-04-08T17:55:19.183Z,18.90
2018-04-08T17:57:45.414Z,18.70
2018-04-08T18:00:11.708Z,18.60
2018-04-08T18:02:38.044Z,18.50
2018-04-08T18:05:05.163Z,18.20
2018-04-08T18:07:31.419Z,18.20
2018-04-08T18:09:57.701Z,18.10
2018-04-08T18:12:23.989Z,17.90
2018-04-08T18:14:51.030Z,17.70
2018-04-08T18:17:18.113Z,17.60
2018-04-08T18:19:44.403Z,17.50
2018-04-08T18:22:10.681Z,17.40
2018-04-08T18:24:36.999Z,17.30
2018-04-08T18:27:03.280Z,17.10
2018-04-08T18:29:29.542Z,17.00
2018-04-08T18:31:56.878Z,16.90
2018-04-08T18:34:23.718Z,16.80
2018-04-08T18:36:50.022Z,16.70
2018-04-08T18:39:17.057Z,16.40
2018-04-08T18:41:43.384Z,16.40
2018-04-08T18:44:09.659Z,16.30
2018-04-08T18:46:36.720Z,16.00
2018-04-08T18:49:03.764Z,15.90
2018-04-08T18:51:30.130Z,15.90
2018-04-08T18:53:57.275Z,15.80
2018-04-08T18:56:23.652Z,15.70
2018-04-08T18:58:49.949Z,15.50
2018-04-08T19:01:16.751Z,15.40
2018-04-08T19:03:43.308Z,15.30
2018-04-08T19:06:09.656Z,15.20
2018-04-08T19:08:35.974Z,15.10
2018-04-08T19:11:02.270Z,14.90
2018-04-08T19:13:30.106Z,14.80
2018-04-08T19:15:56.607Z,14.70
2018-04-08T19:18:24.033Z,14.50
2018-04-08T19:20:50.323Z,14.50
2018-04-08T19:23:17.373Z,14.40
2018-04-08T19:25:43.677Z,14.40
2018-04-08T19:28:10.817Z,14.20
2018-04-08T19:30:37.135Z,14.20
2018-04-08T19:33:04.179Z,14.10
2018-04-08T19:35:31.235Z,14.00
2018-04-08T19:37:57.917Z,14.00
2018-04-08T19:40:24.881Z,13.90
2018-04-08T19:42:52.223Z,13.80
2018-04-08T19:45:19.266Z,13.70
2018-04-08T19:47:46.198Z,13.70
2018-04-08T19:50:12.519Z,13.60
2018-04-08T19:52:38.844Z,13.60
2018-04-08T19:55:06.175Z,13.50
2018-04-08T19:57:32.668Z,13.50
2018-04-08T19:59:58.981Z,13.40
2018-04-08T20:02:26.463Z,13.20
2018-04-08T20:04:52.829Z,13.20
2018-04-08T20:07:19.161Z,13.20
2018-04-08T20:09:46.657Z,13.10
2018-04-08T20:12:13.114Z,13.10
2018-04-08T20:14:39.423Z,13.10
2018-04-08T20:17:05.748Z,13.10
2018-04-08T20:19:32.218Z,13.00
2018-04-08T20:21:58.548Z,13.00
2018-04-08T20:24:24.833Z,13.00
2018-04-08T20:26:51.149Z,12.90
2018-04-08T20:29:17.413Z,12.80
2018-04-08T20:31:43.726Z,12.70
2018-04-08T20:34:09.982Z,12.60
2018-04-08T20:36:37.555Z,12.60
2018-04-08T20:39:04.560Z,12.50
2018-04-08T20:41:31.724Z,12.40
2018-04-08T20:43:58.166Z,12.40
2018-04-08T20:46:25.156Z,12.20
2018-04-08T20:48:51.390Z,12.20
2018-04-08T20:51:17.631Z,12.20
2018-04-08T20:53:43.916Z,12.10
2018-04-08T20:56:10.140Z,12.10
2018-04-08T20:58:36.384Z,12.00
2018-04-08T21:01:02.698Z,12.00
2018-04-08T21:03:29.002Z,12.00
2018-04-08T21:05:56.616Z,12.00
2018-04-08T21:08:23.930Z,11.90
2018-04-08T21:10:51.036Z,11.80
2018-04-08T21:13:17.291Z,11.80
2018-04-08T21:15:43.524Z,11.70
2018-04-08T21:18:09.775Z,11.70
2018-04-08T21:20:36.016Z,11.60
2018-04-08T21:23:02.276Z,11.50
2018-04-08T21:25:29.298Z,11.40
2018-04-08T21:27:55.557Z,11.40
2018-04-08T21:30:21.839Z,11.40
2018-04-08T21:32:48.084Z,11.30
2018-04-08T21:35:14.308Z,11.20
2018-04-08T21:37:40.579Z,11.20
2018-04-08T21:40:07.549Z,11.10
2018-04-08T21:42:34.543Z,11.00
2018-04-08T21:45:00.795Z,11.00
2018-04-08T21:47:27.027Z,11.00
2018-04-08T21:49:53.317Z,10.90
2018-04-08T21:52:20.325Z,10.90
2018-04-08T21:54:46.545Z,10.90
2018-04-08T21:57:12.779Z,10.90
2018-04-08T21:59:38.994Z,10.90
2018-04-08T22:02:05.979Z,10.80
2018-04-08T22:04:32.299Z,10.80
2018-04-08T22:06:59.362Z,10.70
2018-04-08T22:09:26.350Z,10.70
2018-04-08T22:11:52.574Z,10.70
2018-04-08T22:14:18.801Z,10.60
2018-04-08T22:16:45.777Z,10.60
2018-04-08T22:19:12.006Z,10.50
2018-04-08T22:21:38.959Z,10.40
2018-04-08T22:24:05.938Z,10.40
2018-04-08T22:26:32.144Z,10.40
2018-04-08T22:28:59.155Z,10.30
2018-04-08T22:31:25.376Z,10.30
2018-04-08T22:33:51.616Z,10.20
2018-04-08T22:36:17.932Z,10.20
2018-04-08T22:38:44.916Z,10.10
2018-04-08T22:41:11.095Z,10.10
2018-04-08T22:43:37.338Z,10.10
2018-04-08T22:46:03.904Z,10.10
2018-04-08T22:48:30.304Z,10.10
2018-04-08T22:50:56.563Z,10.00
2018-04-08T22:53:22.834Z,10.00
2018-04-08T22:55:49.050Z,9.90
2018-04-08T22:58:15.314Z,9.90
2018-04-08T23:00:41.546Z,9.90
2018-04-08T23:03:07.792Z,9.80
2018-04-08T23:05:34.002Z,9.70
2018-04-08T23:08:00.274Z,9.70
2018-04-08T23:10:26.527Z,9.60
2018-04-08T23:12:52.734Z,9.60
2018-04-08T23:15:18.978Z,9.60
2018-04-08T23:17:45.192Z,9.60
2018-04-08T23:20:11.409Z,9.60
2018-04-08T23:22:37.642Z,9.50
2018-04-08T23:25:04.640Z,9.50
2018-04-08T23:27:30.912Z,9.50
2018-04-08T23:29:57.149Z,9.50
2018-04-08T23:32:23.363Z,9.40
2018-04-08T23:34:49.578Z,9.40
2018-04-08T23:37:15.790Z,9.30
2018-04-08T23:39:42.791Z,9.30
2018-04-08T23:42:09.016Z,9.30
2018-04-08T23:44:35.247Z,9.30
2018-04-08T23:47:01.472Z,9.30
2018-04-08T23:49:28.477Z,9.30
2018-04-08T23:51:54.711Z,9.30
2018-04-08T23:54:20.951Z,9.20
2018-04-08T23:56:47.164Z,9.20
2018-04-08T23:59:14.191Z,9.20
